Airfield :
LOGIN :

Register | Disclaimer

   EN    FR    IT 

 










Legend :    VFR   Marginal VFR   IFR   Intensive IFR   Very Intensive IFR
Visi :
Ceiling :
>= 8 km
>= 3000ft
5 to 8 km
1000 to 3000 ft
1500m to 5 km
500 to 1000 ft
800 to 1500m
200 to 500 ft
< 800m
< 200 ft
Symbols :   Thunderstorms  Fog  Heavy snow  Heavy precipitations  Wind > 20 kt
SIGMETs :     Misc.  Thunderstorms  Icing  Turbulence  Mountain Waves  Volcanic Ashes






- Airport Elevation : 6 ft
- IATA code : CFU


LGKR - Corfu Kerkyra

CURRENT METAR :
  • 280950Z 00000KT 9999 SCT025 18/12 Q1020 NOSIG

EXPIRED METARs :
  • 280920Z 04004KT 9999 SCT025 16/11 Q1020 NOSIG
  • 280850Z 00000KT 9999 SCT025 14/10 Q1020 NOSIG
  • 280820Z 00000KT 9999 SCT025 12/09 Q1020 NOSIG
  • 280750Z 00000KT 9999 SCT025 11/08 Q1020 NOSIG
  • 280720Z 00000KT 9999 SCT025 09/08 Q1020 NOSIG
  • 280650Z 00000KT 9999 SCT025 09/08 Q1020 NOSIG

TAF TAF LGKR
Valid from the 28 at 06:00 until the 29 at 06:00 UTC


280500Z 2806/2906 VRB05KT 9999 FEW015
BECMG 2807/2809 14010KT
BECMG 2820/2822 14015G25KT
PROB30
TEMPO 2818/2906 5000 RA SCT012 BKN020



MET'MAP, your aeronautical weather chart ! - Copyright ORBIFLY December 2007 - Disclaimer

ORBIFLY MET'MAP TEAM :

Programming & Development : Alexandra Zaïnal
Concept & original design : Baudouin d'Aumeries
Assistance for programming : Marc-Olivier Méhu
Technical & hardware support : Manuel Goepfert

Contact : metmap@orbifly.com




SOURCES & CREDITS :

   NOAA